createdAt,value
2022-11-22T00:00:48.577Z,10.29
2022-11-22T00:03:20.644Z,10.20
2022-11-22T00:05:52.560Z,10.26
2022-11-22T00:08:24.627Z,10.31
2022-11-22T00:10:56.594Z,10.34
2022-11-22T00:13:28.468Z,10.33
2022-11-22T00:16:03.007Z,10.34
2022-11-22T00:18:34.953Z,10.28
2022-11-22T00:21:08.514Z,10.39
2022-11-22T00:23:40.457Z,10.35
2022-11-22T00:26:12.458Z,10.31
2022-11-22T00:28:44.433Z,10.34
2022-11-22T00:31:16.625Z,10.34
2022-11-22T00:33:48.552Z,10.30
2022-11-22T00:36:20.705Z,10.33
2022-11-22T00:38:52.997Z,10.36
2022-11-22T00:41:24.885Z,10.35
2022-11-22T00:43:56.770Z,10.33
2022-11-22T00:46:28.731Z,10.27
2022-11-22T00:49:00.648Z,10.27
2022-11-22T00:51:32.612Z,10.24
2022-11-22T00:54:04.846Z,10.19
2022-11-22T00:56:36.982Z,10.20
2022-11-22T00:59:08.900Z,10.00
2022-11-22T01:01:40.917Z,10.14
2022-11-22T01:04:12.951Z,10.14
2022-11-22T01:06:44.855Z,10.10
2022-11-22T01:09:21.022Z,10.09
2022-11-22T01:11:53.031Z,10.08
2022-11-22T01:14:24.979Z,10.01
2022-11-22T01:16:56.948Z,10.04
2022-11-22T01:19:29.043Z,10.02
2022-11-22T01:22:01.252Z,9.91
2022-11-22T01:24:33.173Z,9.94
2022-11-22T01:27:05.113Z,9.92
2022-11-22T01:29:37.221Z,9.88
2022-11-22T01:32:09.116Z,9.67
2022-11-22T01:34:41.047Z,9.79
2022-11-22T01:37:12.981Z,9.82
2022-11-22T01:39:44.919Z,9.75
2022-11-22T01:42:17.014Z,9.73
2022-11-22T01:44:50.629Z,9.75
2022-11-22T01:47:25.224Z,9.67
2022-11-22T01:50:07.612Z,9.76
2022-11-22T01:52:39.537Z,9.76
2022-11-22T01:55:13.427Z,9.51
2022-11-22T01:57:47.404Z,9.68
2022-11-22T02:00:19.623Z,9.67
2022-11-22T02:02:56.421Z,9.64
2022-11-22T02:05:34.088Z,9.61
2022-11-22T02:08:24.718Z,9.58
2022-11-22T02:11:01.620Z,9.58
2022-11-22T02:13:40.316Z,9.56
2022-11-22T02:16:12.747Z,9.38
2022-11-22T02:18:44.734Z,9.56
2022-11-22T02:21:16.740Z,9.55
2022-11-22T02:24:25.598Z,9.50
2022-11-22T02:26:58.458Z,9.50
2022-11-22T02:29:32.442Z,9.42
2022-11-22T02:32:04.754Z,9.48
2022-11-22T02:34:51.194Z,9.39
2022-11-22T02:37:32.477Z,9.40
2022-11-22T02:40:09.474Z,9.36
2022-11-22T02:42:49.041Z,9.36
2022-11-22T02:45:21.055Z,9.30
2022-11-22T02:47:53.065Z,9.37
2022-11-22T02:50:24.991Z,9.37
2022-11-22T02:52:56.878Z,9.31
2022-11-22T02:55:28.891Z,9.30
2022-11-22T02:58:01.066Z,9.25
2022-11-22T03:00:38.823Z,9.29
2022-11-22T03:03:10.762Z,9.32
2022-11-22T03:05:42.675Z,9.34
2022-11-22T03:08:14.599Z,9.32
2022-11-22T03:10:46.483Z,9.29
2022-11-22T03:13:18.457Z,9.17
2022-11-22T03:15:50.415Z,9.21
2022-11-22T03:18:22.658Z,9.24
2022-11-22T03:20:54.603Z,9.26
2022-11-22T03:23:26.582Z,9.20
2022-11-22T03:25:58.897Z,9.17
2022-11-22T03:28:30.785Z,8.94
2022-11-22T03:31:06.691Z,9.19
2022-11-22T03:33:38.626Z,9.14
2022-11-22T03:36:10.676Z,9.17
2022-11-22T03:38:42.574Z,9.15
2022-11-22T03:41:14.608Z,9.11
2022-11-22T03:43:46.524Z,9.08
2022-11-22T03:46:20.393Z,9.01
2022-11-22T03:48:52.355Z,9.10
2022-11-22T03:51:24.330Z,9.06
2022-11-22T03:53:57.713Z,9.02
2022-11-22T03:56:29.728Z,8.93
2022-11-22T03:59:01.726Z,8.93
2022-11-22T04:01:33.598Z,8.97
2022-11-22T04:04:05.844Z,8.97
2022-11-22T04:06:38.560Z,8.96
2022-11-22T04:09:10.719Z,8.85
2022-11-22T04:11:42.724Z,8.81
2022-11-22T04:14:33.485Z,8.89
2022-11-22T04:17:05.448Z,8.79
2022-11-22T04:19:37.366Z,8.83
2022-11-22T04:22:09.281Z,8.79
2022-11-22T04:24:59.728Z,8.78
2022-11-22T04:27:31.628Z,8.70
2022-11-22T04:30:03.841Z,8.68
2022-11-22T04:32:53.326Z,8.58
2022-11-22T04:35:25.210Z,8.66
2022-11-22T04:37:57.078Z,8.59
2022-11-22T04:40:29.080Z,8.59
2022-11-22T04:43:19.914Z,8.56
2022-11-22T04:45:52.425Z,8.38
2022-11-22T04:48:24.374Z,8.45
2022-11-22T04:51:24.014Z,8.23
2022-11-22T04:53:55.940Z,8.42
2022-11-22T04:56:27.876Z,8.41
2022-11-22T04:58:59.799Z,8.41
2022-11-22T05:01:31.786Z,8.37
2022-11-22T05:04:03.831Z,8.39
2022-11-22T05:06:37.264Z,8.41
2022-11-22T05:09:09.183Z,8.38
2022-11-22T05:11:41.761Z,8.33
2022-11-22T05:14:14.036Z,8.29
2022-11-22T05:16:45.965Z,8.32
2022-11-22T05:19:17.867Z,8.31
2022-11-22T05:21:49.770Z,8.29
2022-11-22T05:24:21.661Z,8.22
2022-11-22T05:26:53.555Z,8.16
2022-11-22T05:29:25.490Z,8.21
2022-11-22T05:31:57.384Z,8.13
2022-11-22T05:34:29.338Z,8.16
2022-11-22T05:37:01.214Z,8.09
2022-11-22T05:39:33.172Z,8.14
2022-11-22T05:42:05.990Z,8.13
2022-11-22T05:44:37.982Z,8.13
2022-11-22T05:47:10.596Z,8.11
2022-11-22T05:49:46.081Z,8.07
2022-11-22T05:52:17.989Z,8.04
2022-11-22T05:54:49.883Z,8.03
2022-11-22T05:57:21.757Z,8.06
2022-11-22T05:59:54.512Z,8.08
2022-11-22T06:02:26.836Z,8.09
2022-11-22T06:04:58.861Z,8.09
2022-11-22T06:07:30.795Z,8.06
2022-11-22T06:10:02.905Z,7.99
2022-11-22T06:12:35.689Z,8.09
2022-11-22T06:15:08.530Z,8.08
2022-11-22T06:17:40.461Z,8.09
2022-11-22T06:20:12.846Z,8.08
2022-11-22T06:22:44.834Z,8.01
2022-11-22T06:25:16.983Z,8.11
2022-11-22T06:27:48.888Z,8.11
2022-11-22T06:30:20.790Z,8.00
2022-11-22T06:32:52.660Z,7.98
2022-11-22T06:35:24.626Z,8.08
2022-11-22T06:38:00.701Z,8.05
2022-11-22T06:40:33.031Z,8.11
2022-11-22T06:43:05.760Z,8.03
2022-11-22T06:45:37.654Z,8.01
2022-11-22T06:48:09.571Z,7.97
2022-11-22T06:50:41.467Z,7.96
2022-11-22T06:53:32.397Z,7.95
2022-11-22T06:56:12.000Z,7.92
2022-11-22T06:58:45.332Z,7.92
2022-11-22T07:01:22.142Z,7.92
2022-11-22T07:03:58.971Z,7.96
2022-11-22T07:06:39.070Z,7.84
2022-11-22T07:09:11.883Z,7.99
2022-11-22T07:11:43.990Z,8.02
2022-11-22T07:14:15.939Z,7.98
2022-11-22T07:16:47.999Z,7.82
2022-11-22T07:19:20.002Z,7.84
2022-11-22T07:21:52.083Z,8.01
2022-11-22T07:24:23.980Z,8.02
2022-11-22T07:26:55.930Z,8.03
2022-11-22T07:29:28.168Z,8.02
2022-11-22T07:32:00.315Z,8.04
2022-11-22T07:34:32.271Z,8.06
2022-11-22T07:37:08.906Z,8.06
2022-11-22T07:39:41.163Z,8.11
2022-11-22T07:42:13.276Z,8.08
2022-11-22T07:44:45.162Z,8.11
2022-11-22T07:47:22.602Z,8.12
2022-11-22T07:49:54.886Z,8.12
2022-11-22T07:52:26.813Z,8.15
2022-11-22T07:54:58.749Z,8.20
2022-11-22T07:57:30.624Z,8.27
2022-11-22T08:00:02.929Z,8.28
2022-11-22T08:02:34.874Z,8.27
2022-11-22T08:05:08.327Z,8.26
2022-11-22T08:07:54.002Z,8.28
2022-11-22T08:10:26.073Z,8.28
2022-11-22T08:13:01.338Z,8.33
2022-11-22T08:15:33.320Z,8.27
2022-11-22T08:18:05.424Z,8.37
2022-11-22T08:20:37.315Z,8.23
2022-11-22T08:23:09.248Z,8.43
2022-11-22T08:25:41.210Z,8.45
2022-11-22T08:28:13.096Z,8.47
2022-11-22T08:30:45.052Z,8.51
2022-11-22T08:33:17.047Z,8.51
2022-11-22T08:35:50.833Z,8.50
2022-11-22T08:38:22.793Z,8.50
2022-11-22T08:40:55.195Z,8.50
2022-11-22T08:43:27.089Z,8.48
2022-11-22T08:46:00.113Z,8.44
2022-11-22T08:48:35.685Z,8.57
2022-11-22T08:51:11.602Z,8.56
2022-11-22T08:53:44.531Z,8.50
2022-11-22T08:56:16.614Z,8.56
2022-11-22T08:58:48.674Z,8.54
2022-11-22T09:01:21.760Z,8.60
2022-11-22T09:03:53.704Z,8.55
2022-11-22T09:12:09.990Z,8.69
2022-11-22T09:14:41.890Z,8.70
2022-11-22T09:17:17.797Z,8.71
2022-11-22T09:19:50.342Z,8.78
2022-11-22T09:22:26.965Z,8.80
2022-11-22T09:25:00.495Z,8.82
2022-11-22T09:27:35.244Z,8.91
2022-11-22T09:30:08.189Z,8.94
2022-11-22T09:32:40.063Z,8.97
2022-11-22T09:35:12.053Z,8.99
2022-11-22T09:37:43.974Z,9.04
2022-11-22T09:40:16.639Z,9.09
2022-11-22T09:43:16.294Z,9.09
2022-11-22T09:46:40.427Z,9.10
2022-11-22T09:49:28.553Z,9.10
2022-11-22T09:52:20.204Z,9.10
2022-11-22T09:55:02.045Z,9.15
2022-11-22T09:57:49.870Z,9.16
2022-11-22T10:00:26.100Z,9.19
2022-11-22T10:03:12.199Z,9.21
2022-11-22T10:05:52.760Z,9.17
2022-11-22T10:08:36.523Z,9.24
2022-11-22T10:11:36.864Z,9.24
2022-11-22T10:14:36.468Z,9.17
2022-11-22T10:18:06.460Z,9.14
2022-11-22T10:20:48.465Z,9.20
2022-11-22T10:23:24.572Z,9.23
2022-11-22T10:26:11.382Z,9.24
2022-11-22T10:28:53.277Z,9.25
2022-11-22T10:31:43.697Z,9.23
2022-11-22T10:34:40.809Z,9.13
2022-11-22T10:37:40.508Z,9.05
2022-11-22T10:40:46.576Z,9.22
2022-11-22T10:43:39.281Z,9.23
2022-11-22T10:46:18.205Z,9.33
2022-11-22T10:49:23.009Z,9.33
2022-11-22T10:52:34.728Z,9.39
2022-11-22T10:55:27.616Z,9.47
2022-11-22T10:58:23.590Z,9.50
2022-11-22T11:01:17.724Z,9.53
2022-11-22T11:03:54.923Z,9.54
2022-11-22T11:10:10.112Z,9.60
2022-11-22T11:12:50.252Z,9.66
2022-11-22T11:15:54.435Z,9.63
2022-11-22T11:18:40.837Z,9.56
2022-11-22T11:21:16.221Z,9.64
2022-11-22T11:23:48.532Z,9.65
2022-11-22T11:26:25.916Z,9.66
2022-11-22T11:29:38.988Z,9.65
2022-11-22T11:32:15.961Z,9.70
2022-11-22T11:35:04.405Z,9.69
2022-11-22T11:37:38.939Z,9.71
2022-11-22T11:40:31.019Z,9.74
2022-11-22T11:43:24.102Z,9.75
2022-11-22T11:46:16.406Z,9.77
2022-11-22T11:48:54.214Z,9.85
2022-11-22T11:51:45.395Z,9.84
2022-11-22T11:54:21.829Z,9.86
2022-11-22T11:57:03.885Z,9.88
2022-11-22T11:59:38.497Z,9.92
2022-11-22T12:02:40.713Z,9.71
2022-11-22T12:05:15.673Z,9.93
2022-11-22T12:07:49.582Z,9.93
2022-11-22T12:10:56.684Z,9.93
2022-11-22T12:14:05.068Z,9.95
2022-11-22T12:16:44.099Z,9.97
2022-11-22T12:19:42.573Z,9.99
2022-11-22T12:22:48.907Z,10.02
2022-11-22T12:25:37.902Z,10.04
2022-11-22T12:28:23.621Z,10.05
2022-11-22T12:31:15.472Z,10.10
2022-11-22T12:33:56.258Z,10.13
2022-11-22T12:36:42.227Z,10.18
2022-11-22T12:39:24.967Z,10.15
2022-11-22T12:42:23.050Z,10.16
2022-11-22T12:45:10.902Z,10.24
2022-11-22T12:47:47.039Z,10.20
2022-11-22T12:50:44.027Z,10.20
2022-11-22T12:53:40.965Z,10.20
2022-11-22T12:56:18.937Z,10.24
2022-11-22T12:59:10.774Z,10.25
2022-11-22T13:01:48.685Z,10.33
2022-11-22T13:04:32.696Z,10.32
2022-11-22T13:07:28.098Z,10.29
2022-11-22T13:10:12.088Z,10.23
2022-11-22T13:12:46.011Z,10.30
2022-11-22T13:15:31.110Z,10.32
2022-11-22T13:18:08.505Z,10.35
2022-11-22T13:21:01.427Z,10.34
2022-11-22T13:23:52.800Z,10.35
2022-11-22T13:26:58.688Z,10.29
2022-11-22T13:29:34.577Z,10.30
2022-11-22T13:32:12.671Z,10.32
2022-11-22T13:35:32.685Z,10.26
2022-11-22T13:38:18.172Z,10.33
2022-11-22T13:40:51.484Z,10.37
2022-11-22T13:43:51.161Z,10.27
2022-11-22T13:46:55.280Z,10.31
2022-11-22T13:49:47.996Z,10.34
2022-11-22T13:52:20.722Z,10.38
2022-11-22T13:54:58.450Z,10.39
2022-11-22T13:57:30.417Z,10.35
2022-11-22T14:00:14.981Z,10.33
2022-11-22T14:03:17.498Z,10.29
2022-11-22T14:05:52.613Z,10.35
2022-11-22T14:08:42.445Z,10.29
2022-11-22T14:11:40.833Z,10.22
2022-11-22T14:14:57.264Z,10.27
2022-11-22T14:17:44.519Z,10.27
2022-11-22T14:21:00.386Z,10.13
2022-11-22T14:23:57.306Z,10.23
2022-11-22T14:27:00.231Z,10.23
2022-11-22T14:30:15.116Z,10.24
2022-11-22T14:33:02.524Z,10.30
2022-11-22T14:35:59.250Z,10.20
2022-11-22T14:38:35.713Z,10.37
2022-11-22T14:41:30.402Z,10.37
2022-11-22T14:44:21.212Z,10.29
2022-11-22T14:47:04.727Z,10.29
2022-11-22T14:49:48.372Z,10.09
2022-11-22T14:52:29.792Z,10.20
2022-11-22T14:55:06.349Z,10.26
2022-11-22T14:57:38.992Z,9.98
2022-11-22T15:00:19.194Z,10.28
2022-11-22T15:03:28.739Z,10.26
2022-11-22T15:09:18.391Z,10.23
2022-11-22T15:10:16.609Z,10.15
2022-11-22T15:13:27.700Z,10.09
2022-11-22T15:57:55.831Z,10.07
2022-11-22T16:00:29.639Z,9.96
2022-11-22T16:03:04.278Z,10.13
2022-11-22T16:06:05.694Z,10.11
2022-11-22T16:08:32.819Z,10.13
2022-11-22T16:11:05.857Z,10.14
2022-11-22T16:13:38.451Z,10.16
2022-11-22T16:16:13.440Z,10.18
2022-11-22T16:18:48.334Z,10.18
2022-11-22T16:21:29.342Z,10.20
2022-11-22T16:24:19.129Z,10.14
2022-11-22T16:27:12.540Z,10.13
2022-11-22T16:29:51.416Z,10.17
2022-11-22T16:32:23.682Z,10.18
2022-11-22T16:35:14.643Z,10.04
2022-11-22T16:37:48.344Z,10.22
2022-11-22T16:40:20.453Z,10.28
2022-11-22T16:42:52.514Z,10.28
2022-11-22T16:45:24.470Z,10.28
2022-11-22T16:48:16.647Z,10.27
2022-11-22T16:50:57.998Z,10.27
2022-11-22T16:53:47.101Z,10.33
2022-11-22T16:56:21.647Z,10.35
2022-11-22T16:58:56.307Z,10.36
2022-11-22T17:01:34.135Z,10.28
2022-11-22T17:04:06.230Z,10.40
2022-11-22T17:06:38.284Z,10.44
2022-11-22T17:09:10.281Z,10.34
2022-11-22T17:11:44.497Z,10.43
2022-11-22T17:14:18.938Z,10.43
2022-11-22T17:16:50.845Z,10.44
2022-11-22T17:19:52.683Z,10.46
2022-11-22T17:22:17.632Z,10.46
2022-11-22T17:24:49.626Z,10.46
2022-11-22T17:27:21.556Z,10.48
2022-11-22T17:29:53.463Z,10.46
2022-11-22T17:32:25.406Z,10.35
2022-11-22T17:34:57.322Z,10.55
2022-11-22T17:37:29.771Z,10.56
2022-11-22T17:40:02.205Z,10.58
2022-11-22T17:42:40.757Z,10.58
2022-11-22T17:45:13.412Z,10.58
2022-11-22T17:47:45.395Z,10.60
2022-11-22T17:50:17.398Z,10.60
2022-11-22T17:52:49.388Z,10.62
2022-11-22T17:55:21.354Z,10.62
2022-11-22T17:57:55.954Z,10.61
2022-11-22T18:00:30.273Z,10.62
2022-11-22T18:03:07.892Z,10.64
2022-11-22T18:05:40.192Z,10.63
2022-11-22T18:08:12.242Z,10.65
2022-11-22T18:10:44.205Z,10.64
2022-11-22T18:13:23.367Z,10.64
2022-11-22T18:16:02.977Z,10.64
2022-11-22T18:18:56.133Z,10.62
2022-11-22T18:21:32.351Z,10.65
2022-11-22T18:24:04.692Z,10.51
2022-11-22T18:26:41.152Z,10.65
2022-11-22T18:32:06.181Z,10.50
2022-11-22T18:34:38.344Z,10.39
2022-11-22T18:37:10.596Z,10.57
2022-11-22T18:39:42.611Z,10.56
2022-11-22T18:42:16.730Z,10.52
2022-11-22T18:44:48.814Z,10.62
2022-11-22T18:47:20.821Z,10.65
2022-11-22T18:49:52.800Z,10.69
2022-11-22T18:52:26.515Z,10.64
2022-11-22T18:54:58.502Z,10.64
2022-11-22T18:57:30.455Z,10.63
2022-11-22T19:00:02.868Z,10.64
2022-11-22T19:02:34.826Z,10.62
2022-11-22T19:05:07.113Z,10.63
2022-11-22T19:07:39.576Z,10.53
2022-11-22T19:10:11.539Z,10.58
2022-11-22T19:12:43.703Z,10.58
2022-11-22T19:15:16.692Z,10.59
2022-11-22T19:17:48.746Z,10.62
2022-11-22T19:20:47.205Z,10.63
2022-11-22T19:23:12.741Z,10.55
2022-11-22T19:25:44.670Z,10.59
2022-11-22T19:28:16.610Z,10.60
2022-11-22T19:30:48.501Z,10.63
2022-11-22T19:33:20.568Z,10.64
2022-11-22T19:36:01.191Z,10.61
2022-11-22T19:38:33.256Z,10.59
2022-11-22T19:41:20.555Z,10.56
2022-11-22T19:43:52.830Z,10.62
2022-11-22T19:46:26.434Z,10.62
2022-11-22T19:49:00.029Z,10.62
2022-11-22T19:51:32.826Z,10.65
2022-11-22T19:54:05.818Z,10.59
2022-11-22T19:56:39.010Z,10.65
2022-11-22T19:59:15.629Z,10.71
2022-11-22T20:01:47.750Z,10.66
2022-11-22T20:04:19.741Z,10.66
2022-11-22T20:06:51.641Z,10.66
2022-11-22T20:09:24.128Z,10.74
2022-11-22T20:11:56.045Z,10.83
2022-11-22T20:14:28.206Z,10.69
2022-11-22T20:17:00.418Z,10.68
2022-11-22T20:19:34.433Z,10.62
2022-11-22T20:22:06.705Z,10.69
2022-11-22T20:24:38.812Z,10.63
2022-11-22T20:27:11.196Z,10.66
2022-11-22T20:29:43.718Z,10.67
2022-11-22T20:32:15.694Z,10.65
2022-11-22T20:34:47.643Z,10.66
2022-11-22T20:37:19.719Z,10.52
2022-11-22T20:39:51.662Z,10.66
2022-11-22T20:42:34.022Z,10.63
2022-11-22T20:45:08.755Z,10.64
2022-11-22T20:47:40.847Z,10.63
2022-11-22T20:50:12.778Z,10.64
2022-11-22T20:52:44.769Z,10.61
2022-11-22T20:55:16.757Z,10.64
2022-11-22T20:57:48.727Z,10.62
2022-11-22T21:00:20.685Z,10.65
2022-11-22T21:02:52.639Z,10.64
2022-11-22T21:05:24.619Z,10.65
2022-11-22T21:07:58.333Z,10.62
2022-11-22T21:10:33.167Z,10.56
2022-11-22T21:13:05.267Z,10.59
2022-11-22T21:15:37.247Z,10.58
2022-11-22T21:18:25.278Z,10.57
2022-11-22T21:21:12.992Z,10.56
2022-11-22T21:23:45.012Z,10.56
2022-11-22T21:26:17.325Z,10.54
2022-11-22T21:28:50.175Z,10.56
2022-11-22T21:31:23.244Z,10.58
2022-11-22T21:33:55.396Z,10.60
2022-11-22T21:36:27.413Z,10.62
2022-11-22T21:38:59.411Z,10.63
2022-11-22T21:41:39.697Z,10.66
2022-11-22T21:44:12.450Z,10.66
2022-11-22T21:46:44.436Z,10.63
2022-11-22T21:49:16.353Z,10.70
2022-11-22T21:51:49.526Z,10.71
2022-11-22T21:54:22.072Z,10.68
2022-11-22T21:56:57.297Z,10.70
2022-11-22T21:59:32.521Z,10.67
2022-11-22T22:02:04.759Z,10.68
2022-11-22T22:04:36.724Z,10.67
2022-11-22T22:07:23.608Z,10.72
2022-11-22T22:10:00.625Z,10.71
2022-11-22T22:12:32.650Z,10.69
2022-11-22T22:15:05.559Z,10.69
2022-11-22T22:17:37.545Z,10.68
2022-11-22T22:20:10.148Z,10.68
2022-11-22T22:22:42.107Z,10.53
2022-11-22T22:25:14.241Z,10.73
2022-11-22T22:27:46.197Z,10.73
2022-11-22T22:30:18.307Z,10.75
2022-11-22T22:32:50.289Z,10.76
2022-11-22T22:35:23.221Z,10.73
2022-11-22T22:37:55.149Z,10.74
2022-11-22T22:40:27.070Z,10.75
2022-11-22T22:42:58.997Z,10.76
2022-11-22T22:45:30.926Z,10.78
2022-11-22T22:48:02.913Z,10.75
2022-11-22T22:50:34.839Z,10.71
2022-11-22T22:53:06.921Z,10.68
2022-11-22T22:55:38.896Z,10.79
2022-11-22T22:58:12.515Z,10.73
2022-11-22T23:00:44.816Z,10.77
2022-11-22T23:03:16.781Z,10.76
2022-11-22T23:05:48.722Z,10.76
2022-11-22T23:08:20.661Z,10.77
2022-11-22T23:10:52.550Z,10.79
2022-11-22T23:13:25.650Z,10.81
2022-11-22T23:16:00.298Z,10.81
2022-11-22T23:18:37.105Z,10.85
2022-11-22T23:21:14.032Z,10.75
2022-11-22T23:23:45.886Z,10.82
2022-11-22T23:26:17.778Z,10.84
2022-11-22T23:28:50.868Z,10.82
2022-11-22T23:31:22.802Z,10.79
2022-11-22T23:33:55.115Z,10.93
2022-11-22T23:36:27.493Z,10.94
2022-11-22T23:38:59.485Z,10.75
2022-11-22T23:41:31.349Z,10.83
2022-11-22T23:44:03.850Z,10.88
2022-11-22T23:46:35.979Z,10.81
2022-11-22T23:49:08.236Z,10.76
2022-11-22T23:51:40.435Z,10.90
2022-11-22T23:54:12.414Z,10.90
2022-11-22T23:56:44.369Z,10.93
2022-11-22T23:59:17.721Z,10.95
